Bochem Mumbai — VRHJ8 — position and weather

sailwx.info

Track history (hours):
 
Tides and Currents Weather Stations Pressure Air Temp Water Temp Dewpoint Dewpoint Depression Visibility Wind Speed Wind Dir Waves Ship Positions

Bochem Mumbai

Last reported at 2017-Jul-28 04:31 UTC. Time now 2017-Jul-28 15:09 UTC.
Position N 36°48' W 000°21'.

Length 171 m; draft 9.3 m.

Type: Ship (hazmat cat D). MMSI: 477932400.

Date/timePositionNaut miles runAvg speedWind from/ knotsBaromVisibWave heightAir tempDewpointWater temp
2017-Jul-28 04:31N 36°48' W 000°21'214.2
2017-Jul-28 04:23N 36°49' W 000°18'713.9
2017-Jul-28 03:53N 36°51' W 000°10'1013.9
2017-Jul-28 03:09N 36°54' E 000°02'214.0
2017-Jul-28 03:00N 36°55' E 000°04'3513.7
2017-Jul-28 00:28N 37°07' E 000°45'613.5
2017-Jul-27 23:59N 37°09' E 000°53'713.5
2017-Jul-27 23:27N 37°11' E 001°01'613.5
2017-Jul-27 23:00N 37°13' E 001°09'713.6
2017-Jul-27 22:30N 37°16' E 001°17'713.8
2017-Jul-27 22:00N 37°18' E 001°25'713.8
2017-Jul-27 21:30N 37°20' E 001°33'713.8
2017-Jul-27 21:01N 37°22' E 001°41'814.1
2017-Jul-27 20:25N 37°25' E 001°51'614.1
2017-Jul-27 20:00N 37°27' E 001°58'713.9
2017-Jul-27 19:30N 37°29' E 002°07'55412.0
2017-Jul-25 21:12N 36°53' E 013°40'310.8
2017-Jul-25 20:57N 36°51' E 013°43'511.0
2017-Jul-25 20:30N 36°49' E 013°48'610.9
2017-Jul-25 19:59N 36°46' E 013°54'510.9
2017-Jul-25 19:30N 36°43' E 014°00'510.7
2017-Jul-25 19:00N 36°41' E 014°06'510.5
2017-Jul-25 18:30N 36°38' E 014°12'510.4
2017-Jul-25 18:00N 36°36' E 014°17'510.6
2017-Jul-25 17:30N 36°33' E 014°23'510.7
2017-Jul-25 17:00N 36°31' E 014°29'510.8
2017-Jul-25 16:30N 36°29' E 014°36'510.8
2017-Jul-25 16:00N 36°27' E 014°42'611.0
2017-Jul-25 15:30N 36°25' E 014°48'611.1
2017-Jul-25 15:00N 36°23' E 014°54'1111.0
2017-Jul-25 14:00N 36°19' E 015°07'611.9
2017-Jul-25 13:30N 36°18' E 015°15'612.6
2017-Jul-25 13:00N 36°16' E 015°22'713.0
2017-Jul-25 12:29N 36°14' E 015°30'713.5
2017-Jul-25 12:00N 36°12' E 015°38'814.0
2017-Jul-25 11:26N 36°09' E 015°47'714.3
2017-Jul-25 10:58N 36°08' E 015°55'814.4
2017-Jul-25 10:26N 36°06' E 016°04'714.3
2017-Jul-25 09:56N 36°04' E 016°13'614.0
2017-Jul-25 09:30N 36°02' E 016°20'713.9
2017-Jul-25 09:00N 36°00' E 016°28'713.8
2017-Jul-25 08:30N 35°58' E 016°36'713.7
2017-Jul-25 08:00N 35°56' E 016°45'713.5
2017-Jul-25 07:30N 35°54' E 016°53'713.4
2017-Jul-25 07:00N 35°52' E 017°00'713.3
2017-Jul-25 06:30N 35°50' E 017°08'713.3
2017-Jul-25 05:59N 35°48' E 017°16'713.2
2017-Jul-25 05:30N 35°46' E 017°24'613.3
2017-Jul-25 05:00N 35°44' E 017°31'713.5
2017-Jul-25 04:30N 35°42' E 017°40'1913.8
2017-Jul-25 03:07N 35°36' E 018°02'213.9
2017-Jul-25 03:00N 35°36' E 018°04'713.8
2017-Jul-25 02:30N 35°34' E 018°12'3713.4
2017-Jul-24 23:43N 35°23' E 018°56'313.5
2017-Jul-24 23:30N 35°22' E 018°59'713.7
2017-Jul-24 23:00N 35°20' E 019°07'713.7
2017-Jul-24 22:29N 35°18' E 019°15'813.6
2017-Jul-24 21:55N 35°16' E 019°24'613.5
2017-Jul-24 21:30N 35°14' E 019°31'2113.3
2017-Jul-24 19:55N 35°08' E 019°56'66712.9
2017-Jul-22 16:22N 31°09' E 032°19'  
Track history (hours):
 
Tides and Currents Weather Stations Pressure Air Temp Water Temp Dewpoint Dewpoint Depression Visibility Wind Speed Wind Dir Waves Ship Positions

Bochem Mumbai

Last reported at 2017-Jul-28 04:31 UTC. Time now 2017-Jul-28 15:09 UTC.
Position N 36°48' W 000°21'.

Length 171 m; draft 9.3 m.

Type: Ship (hazmat cat D). MMSI: 477932400.

Date/timePositionNaut miles runAvg speedWind from/ knotsBaromVisibWave heightAir tempDewpointWater temp
2017-Jul-28 04:31N 36°48' W 000°21'214.2
2017-Jul-28 04:23N 36°49' W 000°18'713.9
2017-Jul-28 03:53N 36°51' W 000°10'1013.9
2017-Jul-28 03:09N 36°54' E 000°02'214.0
2017-Jul-28 03:00N 36°55' E 000°04'3513.7
2017-Jul-28 00:28N 37°07' E 000°45'613.5
2017-Jul-27 23:59N 37°09' E 000°53'713.5
2017-Jul-27 23:27N 37°11' E 001°01'613.5
2017-Jul-27 23:00N 37°13' E 001°09'713.6
2017-Jul-27 22:30N 37°16' E 001°17'713.8
2017-Jul-27 22:00N 37°18' E 001°25'713.8
2017-Jul-27 21:30N 37°20' E 001°33'713.8
2017-Jul-27 21:01N 37°22' E 001°41'814.1
2017-Jul-27 20:25N 37°25' E 001°51'614.1
2017-Jul-27 20:00N 37°27' E 001°58'713.9
2017-Jul-27 19:30N 37°29' E 002°07'55412.0
2017-Jul-25 21:12N 36°53' E 013°40'310.8
2017-Jul-25 20:57N 36°51' E 013°43'511.0
2017-Jul-25 20:30N 36°49' E 013°48'610.9
2017-Jul-25 19:59N 36°46' E 013°54'510.9
2017-Jul-25 19:30N 36°43' E 014°00'510.7
2017-Jul-25 19:00N 36°41' E 014°06'510.5
2017-Jul-25 18:30N 36°38' E 014°12'510.4
2017-Jul-25 18:00N 36°36' E 014°17'510.6
2017-Jul-25 17:30N 36°33' E 014°23'510.7
2017-Jul-25 17:00N 36°31' E 014°29'510.8
2017-Jul-25 16:30N 36°29' E 014°36'510.8
2017-Jul-25 16:00N 36°27' E 014°42'611.0
2017-Jul-25 15:30N 36°25' E 014°48'611.1
2017-Jul-25 15:00N 36°23' E 014°54'1111.0
2017-Jul-25 14:00N 36°19' E 015°07'611.9
2017-Jul-25 13:30N 36°18' E 015°15'612.6
2017-Jul-25 13:00N 36°16' E 015°22'713.0
2017-Jul-25 12:29N 36°14' E 015°30'713.5
2017-Jul-25 12:00N 36°12' E 015°38'814.0
2017-Jul-25 11:26N 36°09' E 015°47'714.3
2017-Jul-25 10:58N 36°08' E 015°55'814.4
2017-Jul-25 10:26N 36°06' E 016°04'714.3
2017-Jul-25 09:56N 36°04' E 016°13'614.0
2017-Jul-25 09:30N 36°02' E 016°20'713.9
2017-Jul-25 09:00N 36°00' E 016°28'713.8
2017-Jul-25 08:30N 35°58' E 016°36'713.7
2017-Jul-25 08:00N 35°56' E 016°45'713.5
2017-Jul-25 07:30N 35°54' E 016°53'713.4
2017-Jul-25 07:00N 35°52' E 017°00'713.3
2017-Jul-25 06:30N 35°50' E 017°08'713.3
2017-Jul-25 05:59N 35°48' E 017°16'713.2
2017-Jul-25 05:30N 35°46' E 017°24'613.3
2017-Jul-25 05:00N 35°44' E 017°31'713.5
2017-Jul-25 04:30N 35°42' E 017°40'1913.8
2017-Jul-25 03:07N 35°36' E 018°02'213.9
2017-Jul-25 03:00N 35°36' E 018°04'713.8
2017-Jul-25 02:30N 35°34' E 018°12'3713.4
2017-Jul-24 23:43N 35°23' E 018°56'313.5
2017-Jul-24 23:30N 35°22' E 018°59'713.7
2017-Jul-24 23:00N 35°20' E 019°07'713.7
2017-Jul-24 22:29N 35°18' E 019°15'813.6
2017-Jul-24 21:55N 35°16' E 019°24'613.5
2017-Jul-24 21:30N 35°14' E 019°31'2113.3
2017-Jul-24 19:55N 35°08' E 019°56'66712.9
2017-Jul-22 16:22N 31°09' E 032°19'  

Dump ship's entire track history